Terminal Aerodrome Forecast
Issued by NWS Hastings, NE

Home | Current Version | Previous Version | Text Only | Print | Product List | Glossary On
Versions: 1 2 3 4 5 6 7 8 9 10 11 12 13 14 15 16
000
FTUS43 KGID 221501 AAC
TAFGRI
TAF AMD
KGRI 221501Z 2215/2312 03009KT 4SM BR VCSH BKN005
     FM221600 03010KT P6SM VCSH SCT050
     FM221900 04010KT P6SM VCTS SCT050CB BKN200
     FM222100 04011KT P6SM SCT050 BKN200
     FM230200 VRB05KT P6SM BKN200=

USA.gov is the U.S. government's official web portal to all federal, state and local government web resources and services.